»·PEaware :: N1246C KVNY-KSBP

N1246C :: KVNY-KSBP

FLIGHT INFORMATION

Flight Status: Arrived
Operator: Privately registered:
United States
More flights under this callsign
Pilot: David W. (18435)
Aircraft: CESSNA 182 SKYLANE
(C182)
More flights by this aircraft type
Origin: KVNY Van Nuys
United States
Destination: KSBP San Luis Co Regl
United States
More flights between these airports :: More routes between these airports
Route: FIM OHIGH RZS GVO ORCUT
File this flight plan on PilotEdge
Remarks:
Altitude:
(Current/Filed)
6,500ft
Speed:
(Current/Filed)
130kts
Departed: 13-Sep-18 03:05 PM
Arrived: 13-Sep-18 04:07 PM
Distance/Time
Traveled:
123nm/1:02
Distance/Time
To Go:
Arrived

Flight Plot

Page will automatically refresh every two minutes.

Flight plan parsing failed; only flown route is shown


Map Options




Map Legend


Flown Route
Filed Route
Departure Airport
Arrival Airport
Navaid (VOR, NDB)
Fix

Horizontal Profiles

Position Reports

Time Latitude Longitude Heading Altitude Ground
Speed
13-Sep-18 14:47 34.205633 -118.493822 90 805ft 0kts
13-Sep-18 14:48 34.205633 -118.493821 90 805ft 0kts
13-Sep-18 14:49 34.205979 -118.493314 9 805ft 0kts
13-Sep-18 14:50 34.205980 -118.493314 9 805ft 0kts
13-Sep-18 14:51 34.205981 -118.493314 9 805ft 0kts
13-Sep-18 14:52 34.205982 -118.493314 9 805ft 0kts
13-Sep-18 14:53 34.205982 -118.493314 9 805ft 0kts
13-Sep-18 14:54 34.205983 -118.493313 9 805ft 0kts
13-Sep-18 14:55 34.206004 -118.493309 9 805ft 2kts
13-Sep-18 14:56 34.206591 -118.492418 91 805ft 5kts
13-Sep-18 14:57 34.206581 -118.491899 89 805ft 0kts
13-Sep-18 14:58 34.207937 -118.491424 355 805ft 8kts
13-Sep-18 14:59 34.211176 -118.491729 357 805ft 10kts
13-Sep-18 15:00 34.213580 -118.491936 357 805ft 8kts
13-Sep-18 15:01 34.216857 -118.492290 357 805ft 11kts
13-Sep-18 15:02 34.219239 -118.492506 40 805ft 0kts
13-Sep-18 15:03 34.219245 -118.492500 40 805ft 0kts
13-Sep-18 15:04 34.219003 -118.492109 232 805ft 10kts
13-Sep-18 15:05 34.218702 -118.492228 60 805ft 0kts
13-Sep-18 15:06 34.218513 -118.491226 168 805ft 9kts
13-Sep-18 15:07 34.208667 -118.490410 174 910ft 87kts
13-Sep-18 15:08 34.196409 -118.499531 269 1887ft 69kts
13-Sep-18 15:09 34.216484 -118.507430 357 2577ft 95kts
13-Sep-18 15:10 34.241074 -118.517522 303 3221ft 111kts
13-Sep-18 15:11 34.247985 -118.553445 280 3879ft 107kts
13-Sep-18 15:12 34.254006 -118.588281 281 4559ft 103kts
13-Sep-18 15:13 34.260633 -118.621287 286 5261ft 98kts
13-Sep-18 15:14 34.271139 -118.652539 290 5996ft 104kts
13-Sep-18 15:15 34.282762 -118.683820 290 6520ft 108kts
13-Sep-18 15:16 34.297436 -118.722983 291 6529ft 143kts
13-Sep-18 15:17 34.314180 -118.767632 291 6533ft 147kts
13-Sep-18 15:18 34.330554 -118.811359 291 6532ft 141kts
13-Sep-18 15:19 34.346199 -118.853207 291 6536ft 134kts
13-Sep-18 15:20 34.359529 -118.896781 279 6548ft 144kts
13-Sep-18 15:21 34.367711 -118.944031 280 6536ft 145kts
13-Sep-18 15:22 34.375608 -118.989159 279 6530ft 131kts
13-Sep-18 15:23 34.383174 -119.032626 279 6537ft 133kts
13-Sep-18 15:24 34.390696 -119.075693 280 6492ft 131kts
13-Sep-18 15:25 34.398096 -119.118367 279 6519ft 131kts
13-Sep-18 15:26 34.406048 -119.164205 280 6509ft 145kts
13-Sep-18 15:27 34.414156 -119.211212 280 6517ft 142kts
13-Sep-18 15:28 34.422131 -119.257408 280 6517ft 139kts
13-Sep-18 15:29 34.429803 -119.301913 280 6523ft 132kts
13-Sep-18 15:30 34.437518 -119.346889 280 6532ft 140kts
13-Sep-18 15:31 34.445280 -119.392016 280 6516ft 134kts
13-Sep-18 15:32 34.452969 -119.437015 280 6528ft 139kts
13-Sep-18 15:33 34.460879 -119.483376 280 6524ft 142kts
13-Sep-18 15:34 34.468614 -119.528821 280 6516ft 134kts
13-Sep-18 15:35 34.475767 -119.570920 280 6522ft 145kts
13-Sep-18 15:36 34.483668 -119.617519 280 6510ft 141kts
13-Sep-18 15:37 34.491628 -119.664742 280 6518ft 146kts
13-Sep-18 15:38 34.499674 -119.712510 280 6509ft 146kts
13-Sep-18 15:39 34.507522 -119.759106 280 6510ft 138kts
13-Sep-18 15:40 34.511911 -119.805412 274 6511ft 140kts
13-Sep-18 15:41 34.515188 -119.852830 274 6511ft 144kts
13-Sep-18 15:42 34.518329 -119.898647 274 6503ft 131kts
13-Sep-18 15:43 34.521400 -119.943876 273 6525ft 138kts
13-Sep-18 15:44 34.524472 -119.989167 273 6501ft 135kts
13-Sep-18 15:45 34.527544 -120.034734 274 6537ft 137kts
13-Sep-18 15:46 34.530551 -120.079571 274 6532ft 130kts
13-Sep-18 15:47 34.553784 -120.111891 319 6547ft 136kts
13-Sep-18 15:48 34.584733 -120.140166 319 6541ft 141kts
13-Sep-18 15:49 34.616699 -120.169507 319 6538ft 147kts
13-Sep-18 15:50 34.648821 -120.199068 319 6544ft 145kts
13-Sep-18 15:51 34.679376 -120.227188 319 6549ft 133kts
13-Sep-18 15:52 34.710673 -120.256105 320 6538ft 144kts
13-Sep-18 15:53 34.742278 -120.285216 319 6564ft 144kts
13-Sep-18 15:54 34.774613 -120.315073 319 6567ft 148kts
13-Sep-18 15:55 34.805697 -120.343781 319 6561ft 135kts
13-Sep-18 15:56 34.835710 -120.371565 320 6569ft 136kts
13-Sep-18 15:57 34.866990 -120.397275 328 6574ft 134kts
13-Sep-18 15:58 34.900733 -120.419513 328 6575ft 141kts
13-Sep-18 15:59 34.935308 -120.442315 329 6456ft 141kts
13-Sep-18 16:00 34.967885 -120.463853 332 6557ft 131kts
13-Sep-18 16:01 35.000002 -120.485102 332 6550ft 131kts
13-Sep-18 16:02 35.032084 -120.506341 332 6547ft 131kts
13-Sep-18 16:03 35.064292 -120.527681 332 6552ft 133kts
13-Sep-18 16:04 35.096466 -120.549286 328 6684ft 113kts
13-Sep-18 16:05 35.132760 -120.560334 2 5104ft 161kts
13-Sep-18 16:06 35.178964 -120.565170 339 2551ft 166kts
13-Sep-18 16:07 35.211282 -120.596456 306 996ft 122kts
13-Sep-18 16:08 35.226952 -120.623378 308 593ft 75kts
13-Sep-18 16:09 35.235813 -120.638321 305 215ft 22kts
13-Sep-18 16:10 35.237473 -120.640186 6 215ft 0kts
13-Sep-18 16:11 35.237654 -120.638414 87 215ft 8kts
13-Sep-18 16:12 35.237703 -120.636819 90 215ft 0kts
13-Sep-18 16:13 35.237703 -120.636819 90 215ft 0kts
13-Sep-18 16:14 35.237703 -120.636819 90 215ft 0kts
13-Sep-18 16:15 35.237703 -120.636819 90 215ft 0kts
13-Sep-18 16:16 35.237703 -120.636819 90 215ft 0kts

Navigation Log

Ident Type
Flight plan parsing failed, navigation log unavailable